sensor_id;sensor_type;location;lat;lon;timestamp;pressure;altitude;pressure_sealevel;temperature
51149;BMP280;37210;50.058;8.688;2023-05-10T00:00:25;99435.94;;;17.18
51149;BMP280;37210;50.058;8.688;2023-05-10T00:02:54;99440.84;;;17.05
51149;BMP280;37210;50.058;8.688;2023-05-10T00:05:21;99421.56;;;17.03
51149;BMP280;37210;50.058;8.688;2023-05-10T00:07:49;99438.75;;;17.13
51149;BMP280;37210;50.058;8.688;2023-05-10T00:10:16;99443.66;;;17.01
51149;BMP280;37210;50.058;8.688;2023-05-10T00:12:44;99451.88;;;17.16
51149;BMP280;37210;50.058;8.688;2023-05-10T00:17:42;99448.44;;;16.91
51149;BMP280;37210;50.058;8.688;2023-05-10T00:20:12;99443.03;;;16.94
51149;BMP280;37210;50.058;8.688;2023-05-10T00:22:39;99352.19;;;16.53
51149;BMP280;37210;50.058;8.688;2023-05-10T00:25:08;99452.53;;;16.76
51149;BMP280;37210;50.058;8.688;2023-05-10T00:27:37;99310.00;;;16.06
51149;BMP280;37210;50.058;8.688;2023-05-10T00:30:06;99442.88;;;16.75
51149;BMP280;37210;50.058;8.688;2023-05-10T00:32:35;99450.16;;;16.92
51149;BMP280;37210;50.058;8.688;2023-05-10T00:35:02;99450.78;;;16.75
51149;BMP280;37210;50.058;8.688;2023-05-10T00:37:32;99456.63;;;16.84
51149;BMP280;37210;50.058;8.688;2023-05-10T00:39:59;99449.31;;;16.68
51149;BMP280;37210;50.058;8.688;2023-05-10T00:42:27;99433.09;;;16.54
51149;BMP280;37210;50.058;8.688;2023-05-10T00:44:55;99442.81;;;16.54
51149;BMP280;37210;50.058;8.688;2023-05-10T00:47:22;99413.31;;;16.18
51149;BMP280;37210;50.058;8.688;2023-05-10T00:49:50;99425.53;;;16.21
51149;BMP280;37210;50.058;8.688;2023-05-10T00:52:19;99461.41;;;16.74
51149;BMP280;37210;50.058;8.688;2023-05-10T00:54:48;99483.88;;;16.62
51149;BMP280;37210;50.058;8.688;2023-05-10T00:57:17;99434.84;;;16.31
51149;BMP280;37210;50.058;8.688;2023-05-10T00:59:45;99395.38;;;15.78
51149;BMP280;37210;50.058;8.688;2023-05-10T01:02:13;99480.34;;;16.37
51149;BMP280;37210;50.058;8.688;2023-05-10T01:04:41;99345.59;;;15.45
51149;BMP280;37210;50.058;8.688;2023-05-10T01:07:09;99487.06;;;16.21
51149;BMP280;37210;50.058;8.688;2023-05-10T01:09:37;99434.78;;;15.83
51149;BMP280;37210;50.058;8.688;2023-05-10T01:12:07;99471.34;;;16.43
51149;BMP280;37210;50.058;8.688;2023-05-10T01:14:35;99340.69;;;15.33
51149;BMP280;37210;50.058;8.688;2023-05-10T01:17:03;99428.34;;;16.16
51149;BMP280;37210;50.058;8.688;2023-05-10T01:19:34;99471.78;;;16.31
51149;BMP280;37210;50.058;8.688;2023-05-10T01:22:18;99406.75;;;16.05
51149;BMP280;37210;50.058;8.688;2023-05-10T01:25:27;99376.78;;;15.57
51149;BMP280;37210;50.058;8.688;2023-05-10T01:34:54;99476.34;;;16.26
51149;BMP280;37210;50.058;8.688;2023-05-10T01:37:39;99475.91;;;16.13
51149;BMP280;37210;50.058;8.688;2023-05-10T01:40:17;99363.53;;;15.32
51149;BMP280;37210;50.058;8.688;2023-05-10T01:42:54;99456.13;;;15.75
51149;BMP280;37210;50.058;8.688;2023-05-10T01:45:31;99488.34;;;16.10
51149;BMP280;37210;50.058;8.688;2023-05-10T01:48:07;99377.13;;;15.48
51149;BMP280;37210;50.058;8.688;2023-05-10T01:50:39;99337.69;;;15.17
51149;BMP280;37210;50.058;8.688;2023-05-10T01:53:11;99353.63;;;15.14
51149;BMP280;37210;50.058;8.688;2023-05-10T01:55:46;99390.19;;;15.51
51149;BMP280;37210;50.058;8.688;2023-05-10T01:58:20;99500.47;;;16.15
51149;BMP280;37210;50.058;8.688;2023-05-10T02:00:52;99478.16;;;15.73
51149;BMP280;37210;50.058;8.688;2023-05-10T02:03:24;99511.06;;;15.87
51149;BMP280;37210;50.058;8.688;2023-05-10T02:05:56;99426.25;;;15.49
51149;BMP280;37210;50.058;8.688;2023-05-10T02:08:25;99373.09;;;15.08
51149;BMP280;37210;50.058;8.688;2023-05-10T02:10:58;99510.94;;;15.92
51149;BMP280;37210;50.058;8.688;2023-05-10T02:13:29;99280.66;;;14.64
51149;BMP280;37210;50.058;8.688;2023-05-10T02:16:00;99362.19;;;14.93
51149;BMP280;37210;50.058;8.688;2023-05-10T02:18:32;99488.19;;;15.89
51149;BMP280;37210;50.058;8.688;2023-05-10T02:21:02;99381.25;;;15.27
51149;BMP280;37210;50.058;8.688;2023-05-10T02:23:30;99377.06;;;15.21
51149;BMP280;37210;50.058;8.688;2023-05-10T02:26:00;99467.06;;;15.36
51149;BMP280;37210;50.058;8.688;2023-05-10T02:28:33;99524.59;;;15.78
51149;BMP280;37210;50.058;8.688;2023-05-10T02:31:05;99534.97;;;15.83
51149;BMP280;37210;50.058;8.688;2023-05-10T02:33:35;99486.94;;;15.73
51149;BMP280;37210;50.058;8.688;2023-05-10T02:36:04;99544.31;;;15.93
51149;BMP280;37210;50.058;8.688;2023-05-10T02:38:36;99507.84;;;15.79
51149;BMP280;37210;50.058;8.688;2023-05-10T02:41:05;99446.91;;;15.07
51149;BMP280;37210;50.058;8.688;2023-05-10T02:43:37;99484.66;;;15.63
51149;BMP280;37210;50.058;8.688;2023-05-10T02:46:09;99506.88;;;15.56
51149;BMP280;37210;50.058;8.688;2023-05-10T02:48:38;99531.88;;;15.96
51149;BMP280;37210;50.058;8.688;2023-05-10T02:51:07;99529.53;;;15.87
51149;BMP280;37210;50.058;8.688;2023-05-10T02:53:43;99537.44;;;15.87
51149;BMP280;37210;50.058;8.688;2023-05-10T02:56:16;99494.53;;;15.56
51149;BMP280;37210;50.058;8.688;2023-05-10T02:58:52;99445.78;;;15.42
51149;BMP280;37210;50.058;8.688;2023-05-10T03:01:20;99504.22;;;15.56
51149;BMP280;37210;50.058;8.688;2023-05-10T03:03:49;99508.63;;;15.55
51149;BMP280;37210;50.058;8.688;2023-05-10T03:06:16;99485.63;;;15.60
51149;BMP280;37210;50.058;8.688;2023-05-10T03:08:45;99485.47;;;15.65
51149;BMP280;37210;50.058;8.688;2023-05-10T03:11:27;99468.97;;;15.58
51149;BMP280;37210;50.058;8.688;2023-05-10T03:14:10;99473.50;;;15.55
51149;BMP280;37210;50.058;8.688;2023-05-10T03:16:46;99507.69;;;15.58
51149;BMP280;37210;50.058;8.688;2023-05-10T03:19:24;99539.91;;;15.93
51149;BMP280;37210;50.058;8.688;2023-05-10T03:21:59;99470.75;;;15.30
51149;BMP280;37210;50.058;8.688;2023-05-10T03:24:35;99509.53;;;15.54
51149;BMP280;37210;50.058;8.688;2023-05-10T03:27:07;99511.00;;;15.64
51149;BMP280;37210;50.058;8.688;2023-05-10T03:29:36;99482.34;;;15.52
51149;BMP280;37210;50.058;8.688;2023-05-10T03:32:05;99552.78;;;15.76
51149;BMP280;37210;50.058;8.688;2023-05-10T03:34:41;99547.38;;;15.79
51149;BMP280;37210;50.058;8.688;2023-05-10T03:37:09;99550.63;;;15.87
51149;BMP280;37210;50.058;8.688;2023-05-10T03:39:37;99436.28;;;15.10
51149;BMP280;37210;50.058;8.688;2023-05-10T03:42:07;99563.31;;;15.76
51149;BMP280;37210;50.058;8.688;2023-05-10T03:44:38;99562.38;;;15.77
51149;BMP280;37210;50.058;8.688;2023-05-10T03:47:06;99568.72;;;15.72
51149;BMP280;37210;50.058;8.688;2023-05-10T03:49:35;99446.66;;;15.14
51149;BMP280;37210;50.058;8.688;2023-05-10T03:52:03;99575.09;;;15.92
51149;BMP280;37210;50.058;8.688;2023-05-10T03:54:31;99374.25;;;14.72
51149;BMP280;37210;50.058;8.688;2023-05-10T03:56:59;99562.78;;;15.93
51149;BMP280;37210;50.058;8.688;2023-05-10T03:59:29;99495.94;;;15.39
51149;BMP280;37210;50.058;8.688;2023-05-10T04:01:57;99382.59;;;14.57
51149;BMP280;37210;50.058;8.688;2023-05-10T04:04:25;99518.34;;;15.53
51149;BMP280;37210;50.058;8.688;2023-05-10T04:06:53;99376.78;;;14.75
51149;BMP280;37210;50.058;8.688;2023-05-10T04:09:22;99479.28;;;15.38
51149;BMP280;37210;50.058;8.688;2023-05-10T04:11:49;99560.44;;;15.84
51149;BMP280;37210;50.058;8.688;2023-05-10T04:14:17;99493.22;;;15.42
51149;BMP280;37210;50.058;8.688;2023-05-10T04:16:45;99561.97;;;15.63
51149;BMP280;37210;50.058;8.688;2023-05-10T04:19:12;99532.91;;;15.65
51149;BMP280;37210;50.058;8.688;2023-05-10T04:21:40;99460.78;;;15.12
51149;BMP280;37210;50.058;8.688;2023-05-10T04:24:10;99572.09;;;15.77
51149;BMP280;37210;50.058;8.688;2023-05-10T04:26:37;99572.72;;;15.83
51149;BMP280;37210;50.058;8.688;2023-05-10T04:29:05;99482.69;;;15.12
51149;BMP280;37210;50.058;8.688;2023-05-10T04:31:32;99575.56;;;15.77
51149;BMP280;37210;50.058;8.688;2023-05-10T04:34:02;99572.78;;;15.82
51149;BMP280;37210;50.058;8.688;2023-05-10T04:36:30;99540.06;;;15.61
51149;BMP280;37210;50.058;8.688;2023-05-10T04:38:58;99557.19;;;15.76
51149;BMP280;37210;50.058;8.688;2023-05-10T04:41:29;99515.91;;;15.47
51149;BMP280;37210;50.058;8.688;2023-05-10T04:43:57;99493.91;;;15.48
51149;BMP280;37210;50.058;8.688;2023-05-10T04:46:27;99580.16;;;15.98
51149;BMP280;37210;50.058;8.688;2023-05-10T04:48:55;99495.53;;;15.25
51149;BMP280;37210;50.058;8.688;2023-05-10T04:51:22;99588.13;;;15.97
51149;BMP280;37210;50.058;8.688;2023-05-10T04:53:53;99538.97;;;15.68
51149;BMP280;37210;50.058;8.688;2023-05-10T04:56:21;99595.44;;;15.89
51149;BMP280;37210;50.058;8.688;2023-05-10T04:58:50;99522.00;;;15.49
51149;BMP280;37210;50.058;8.688;2023-05-10T05:01:18;99478.84;;;15.24
51149;BMP280;37210;50.058;8.688;2023-05-10T05:03:46;99592.25;;;16.06
51149;BMP280;37210;50.058;8.688;2023-05-10T05:06:13;99561.19;;;15.87
51149;BMP280;37210;50.058;8.688;2023-05-10T05:08:41;99603.03;;;15.98
51149;BMP280;37210;50.058;8.688;2023-05-10T05:11:09;99606.75;;;15.92
51149;BMP280;37210;50.058;8.688;2023-05-10T05:13:36;99444.94;;;15.13
51149;BMP280;37210;50.058;8.688;2023-05-10T05:16:06;99596.72;;;16.04
51149;BMP280;37210;50.058;8.688;2023-05-10T05:18:34;99437.63;;;14.94
51149;BMP280;37210;50.058;8.688;2023-05-10T05:21:02;99551.34;;;15.66
51149;BMP280;37210;50.058;8.688;2023-05-10T05:23:30;99592.59;;;15.95
51149;BMP280;37210;50.058;8.688;2023-05-10T05:25:58;99577.41;;;15.75
51149;BMP280;37210;50.058;8.688;2023-05-10T05:28:26;99617.81;;;16.04
51149;BMP280;37210;50.058;8.688;2023-05-10T05:30:58;99612.28;;;15.83
51149;BMP280;37210;50.058;8.688;2023-05-10T05:33:28;99617.16;;;15.97
51149;BMP280;37210;50.058;8.688;2023-05-10T05:35:56;99534.19;;;15.53
51149;BMP280;37210;50.058;8.688;2023-05-10T05:38:24;99617.69;;;16.08
51149;BMP280;37210;50.058;8.688;2023-05-10T05:40:51;99588.94;;;16.25
51149;BMP280;37210;50.058;8.688;2023-05-10T05:43:19;99475.91;;;15.62
51149;BMP280;37210;50.058;8.688;2023-05-10T05:45:48;99430.47;;;15.27
51149;BMP280;37210;50.058;8.688;2023-05-10T05:48:16;99538.09;;;15.68
51149;BMP280;37210;50.058;8.688;2023-05-10T05:50:44;99624.72;;;16.34
51149;BMP280;37210;50.058;8.688;2023-05-10T05:53:12;99624.22;;;16.49
51149;BMP280;37210;50.058;8.688;2023-05-10T05:55:40;99626.06;;;16.47
51149;BMP280;37210;50.058;8.688;2023-05-10T05:58:07;99620.72;;;16.48
51149;BMP280;37210;50.058;8.688;2023-05-10T06:00:35;99403.25;;;15.26
51149;BMP280;37210;50.058;8.688;2023-05-10T06:03:03;99639.34;;;16.44
51149;BMP280;37210;50.058;8.688;2023-05-10T06:05:30;99631.06;;;16.56
51149;BMP280;37210;50.058;8.688;2023-05-10T06:08:00;99607.69;;;16.18
51149;BMP280;37210;50.058;8.688;2023-05-10T06:10:28;99617.53;;;16.39
51149;BMP280;37210;50.058;8.688;2023-05-10T06:12:56;99551.72;;;16.08
51149;BMP280;37210;50.058;8.688;2023-05-10T06:15:24;99639.44;;;16.68
51149;BMP280;37210;50.058;8.688;2023-05-10T06:17:52;99648.41;;;16.63
51149;BMP280;37210;50.058;8.688;2023-05-10T06:20:19;99601.84;;;16.34
51149;BMP280;37210;50.058;8.688;2023-05-10T06:22:47;99632.69;;;16.60
51149;BMP280;37210;50.058;8.688;2023-05-10T06:25:15;99650.16;;;16.64
51149;BMP280;37210;50.058;8.688;2023-05-10T06:27:44;99649.88;;;16.71
51149;BMP280;37210;50.058;8.688;2023-05-10T06:30:12;99651.56;;;16.74
51149;BMP280;37210;50.058;8.688;2023-05-10T06:32:41;99613.63;;;16.50
51149;BMP280;37210;50.058;8.688;2023-05-10T06:35:11;99666.00;;;16.36
51149;BMP280;37210;50.058;8.688;2023-05-10T06:37:38;99642.97;;;16.41
51149;BMP280;37210;50.058;8.688;2023-05-10T06:40:07;99661.25;;;16.73
51149;BMP280;37210;50.058;8.688;2023-05-10T06:42:38;99639.66;;;16.61
51149;BMP280;37210;50.058;8.688;2023-05-10T06:45:07;99656.09;;;16.70
51149;BMP280;37210;50.058;8.688;2023-05-10T06:47:35;99662.72;;;16.82
51149;BMP280;37210;50.058;8.688;2023-05-10T06:50:03;99660.13;;;16.81
51149;BMP280;37210;50.058;8.688;2023-05-10T06:52:31;99556.53;;;16.22
51149;BMP280;37210;50.058;8.688;2023-05-10T06:54:58;99667.91;;;17.10
51149;BMP280;37210;50.058;8.688;2023-05-10T06:57:26;99667.56;;;16.94
51149;BMP280;37210;50.058;8.688;2023-05-10T06:59:56;99669.94;;;16.77
51149;BMP280;37210;50.058;8.688;2023-05-10T07:02:23;99671.28;;;16.89
51149;BMP280;37210;50.058;8.688;2023-05-10T07:04:51;99625.28;;;16.69
51149;BMP280;37210;50.058;8.688;2023-05-10T07:07:19;99677.91;;;17.00
51149;BMP280;37210;50.058;8.688;2023-05-10T07:09:47;99673.63;;;17.22
51149;BMP280;37210;50.058;8.688;2023-05-10T07:12:15;99593.69;;;16.68
51149;BMP280;37210;50.058;8.688;2023-05-10T07:14:46;99643.84;;;16.93
51149;BMP280;37210;50.058;8.688;2023-05-10T07:17:14;99674.00;;;16.87
51149;BMP280;37210;50.058;8.688;2023-05-10T07:19:42;99685.66;;;17.06
51149;BMP280;37210;50.058;8.688;2023-05-10T07:22:10;99641.88;;;16.99
51149;BMP280;37210;50.058;8.688;2023-05-10T07:24:37;99680.50;;;17.26
51149;BMP280;37210;50.058;8.688;2023-05-10T07:27:05;99689.69;;;17.16
51149;BMP280;37210;50.058;8.688;2023-05-10T07:29:32;99628.94;;;16.92
51149;BMP280;37210;50.058;8.688;2023-05-10T07:31:59;99667.31;;;17.26
51149;BMP280;37210;50.058;8.688;2023-05-10T07:34:28;99686.84;;;17.22
51149;BMP280;37210;50.058;8.688;2023-05-10T07:36:58;99684.78;;;17.30
51149;BMP280;37210;50.058;8.688;2023-05-10T07:39:26;99688.72;;;17.43
51149;BMP280;37210;50.058;8.688;2023-05-10T07:41:54;99661.38;;;17.20
51149;BMP280;37210;50.058;8.688;2023-05-10T07:44:23;99682.41;;;17.46
51149;BMP280;37210;50.058;8.688;2023-05-10T07:46:51;99696.75;;;17.16
51149;BMP280;37210;50.058;8.688;2023-05-10T07:49:18;99685.41;;;17.37
51149;BMP280;37210;50.058;8.688;2023-05-10T07:51:47;99696.56;;;17.45
51149;BMP280;37210;50.058;8.688;2023-05-10T07:54:15;99683.16;;;17.51
51149;BMP280;37210;50.058;8.688;2023-05-10T07:56:42;99690.94;;;17.79
51149;BMP280;37210;50.058;8.688;2023-05-10T07:59:15;99698.72;;;18.05
51149;BMP280;37210;50.058;8.688;2023-05-10T08:01:44;99671.22;;;18.09
51149;BMP280;37210;50.058;8.688;2023-05-10T08:04:12;99667.13;;;18.00
51149;BMP280;37210;50.058;8.688;2023-05-10T08:06:39;99696.19;;;18.23
51149;BMP280;37210;50.058;8.688;2023-05-10T08:09:08;99691.03;;;18.42
51149;BMP280;37210;50.058;8.688;2023-05-10T08:11:36;99662.47;;;18.28
51149;BMP280;37210;50.058;8.688;2023-05-10T08:14:04;99688.59;;;18.59
51149;BMP280;37210;50.058;8.688;2023-05-10T08:16:32;99692.59;;;18.69
51149;BMP280;37210;50.058;8.688;2023-05-10T08:19:00;99683.84;;;18.67
51149;BMP280;37210;50.058;8.688;2023-05-10T08:21:28;99694.94;;;18.97
51149;BMP280;37210;50.058;8.688;2023-05-10T08:23:57;99702.34;;;19.09
51149;BMP280;37210;50.058;8.688;2023-05-10T08:26:26;99655.56;;;18.88
51149;BMP280;37210;50.058;8.688;2023-05-10T08:28:55;99688.97;;;19.34
51149;BMP280;37210;50.058;8.688;2023-05-10T08:31:23;99698.59;;;19.14
51149;BMP280;37210;50.058;8.688;2023-05-10T08:33:54;99686.59;;;19.06
51149;BMP280;37210;50.058;8.688;2023-05-10T08:36:21;99706.56;;;19.14
51149;BMP280;37210;50.058;8.688;2023-05-10T08:38:50;99691.56;;;19.13
51149;BMP280;37210;50.058;8.688;2023-05-10T08:41:19;99702.75;;;19.20
51149;BMP280;37210;50.058;8.688;2023-05-10T08:43:50;99691.22;;;19.01
51149;BMP280;37210;50.058;8.688;2023-05-10T08:46:20;99700.56;;;19.09
51149;BMP280;37210;50.058;8.688;2023-05-10T08:48:49;99706.03;;;19.06
51149;BMP280;37210;50.058;8.688;2023-05-10T08:51:19;99709.13;;;19.16
51149;BMP280;37210;50.058;8.688;2023-05-10T08:53:52;99708.41;;;19.33
51149;BMP280;37210;50.058;8.688;2023-05-10T08:56:20;99706.31;;;19.41
51149;BMP280;37210;50.058;8.688;2023-05-10T08:58:50;99690.84;;;19.50
51149;BMP280;37210;50.058;8.688;2023-05-10T09:01:18;99695.69;;;19.41
51149;BMP280;37210;50.058;8.688;2023-05-10T09:03:47;99697.75;;;19.54
51149;BMP280;37210;50.058;8.688;2023-05-10T09:06:16;99714.56;;;19.92
51149;BMP280;37210;50.058;8.688;2023-05-10T09:08:44;99709.47;;;20.06
51149;BMP280;37210;50.058;8.688;2023-05-10T09:11:12;99707.81;;;20.04
51149;BMP280;37210;50.058;8.688;2023-05-10T09:13:41;99697.28;;;20.02
51149;BMP280;37210;50.058;8.688;2023-05-10T09:16:11;99705.44;;;20.16
51149;BMP280;37210;50.058;8.688;2023-05-10T09:18:39;99703.78;;;19.95
51149;BMP280;37210;50.058;8.688;2023-05-10T09:21:07;99718.03;;;19.74
51149;BMP280;37210;50.058;8.688;2023-05-10T09:23:35;99720.31;;;20.02
51149;BMP280;37210;50.058;8.688;2023-05-10T09:26:03;99708.88;;;19.81
51149;BMP280;37210;50.058;8.688;2023-05-10T09:28:32;99715.63;;;19.88
51149;BMP280;37210;50.058;8.688;2023-05-10T09:31:00;99719.31;;;20.04
51149;BMP280;37210;50.058;8.688;2023-05-10T09:33:29;99690.72;;;19.72
51149;BMP280;37210;50.058;8.688;2023-05-10T09:36:12;99730.31;;;19.76
51149;BMP280;37210;50.058;8.688;2023-05-10T09:38:47;99724.31;;;19.73
51149;BMP280;37210;50.058;8.688;2023-05-10T09:41:16;99709.81;;;19.80
51149;BMP280;37210;50.058;8.688;2023-05-10T09:43:44;99725.41;;;19.67
51149;BMP280;37210;50.058;8.688;2023-05-10T09:46:17;99704.44;;;19.23
51149;BMP280;37210;50.058;8.688;2023-05-10T09:48:50;99728.19;;;19.46
51149;BMP280;37210;50.058;8.688;2023-05-10T09:51:21;99715.13;;;19.41
51149;BMP280;37210;50.058;8.688;2023-05-10T09:54:08;99733.78;;;19.18
51149;BMP280;37210;50.058;8.688;2023-05-10T09:56:38;99738.47;;;19.11
51149;BMP280;37210;50.058;8.688;2023-05-10T09:59:07;99742.72;;;19.15
51149;BMP280;37210;50.058;8.688;2023-05-10T10:01:37;99752.00;;;19.05
51149;BMP280;37210;50.058;8.688;2023-05-10T10:04:08;99752.53;;;18.93
51149;BMP280;37210;50.058;8.688;2023-05-10T10:06:37;99747.28;;;18.92
51149;BMP280;37210;50.058;8.688;2023-05-10T10:09:05;99764.25;;;18.66
51149;BMP280;37210;50.058;8.688;2023-05-10T10:11:34;99776.25;;;18.75
51149;BMP280;37210;50.058;8.688;2023-05-10T10:14:03;99769.63;;;18.65
51149;BMP280;37210;50.058;8.688;2023-05-10T10:16:32;99771.41;;;18.64
51149;BMP280;37210;50.058;8.688;2023-05-10T10:19:00;99764.13;;;18.48
51149;BMP280;37210;50.058;8.688;2023-05-10T10:21:29;99770.94;;;18.53
51149;BMP280;37210;50.058;8.688;2023-05-10T10:23:57;99760.25;;;18.56
51149;BMP280;37210;50.058;8.688;2023-05-10T10:26:24;99776.19;;;18.76
51149;BMP280;37210;50.058;8.688;2023-05-10T10:29:00;99770.28;;;18.91
51149;BMP280;37210;50.058;8.688;2023-05-10T10:31:40;99779.91;;;18.94
51149;BMP280;37210;50.058;8.688;2023-05-10T10:34:25;99756.78;;;18.76
51149;BMP280;37210;50.058;8.688;2023-05-10T10:36:56;99772.50;;;18.80
51149;BMP280;37210;50.058;8.688;2023-05-10T10:39:24;99777.28;;;18.92
51149;BMP280;37210;50.058;8.688;2023-05-10T10:41:53;99735.91;;;18.68
51149;BMP280;37210;50.058;8.688;2023-05-10T10:44:36;99770.88;;;18.98
51149;BMP280;37210;50.058;8.688;2023-05-10T10:47:07;99777.72;;;18.82
51149;BMP280;37210;50.058;8.688;2023-05-10T10:49:38;99769.34;;;18.92
51149;BMP280;37210;50.058;8.688;2023-05-10T10:52:26;99782.03;;;18.84
51149;BMP280;37210;50.058;8.688;2023-05-10T10:55:00;99776.66;;;18.86
51149;BMP280;37210;50.058;8.688;2023-05-10T10:57:32;99776.91;;;19.01
51149;BMP280;37210;50.058;8.688;2023-05-10T11:00:23;99752.25;;;18.79
51149;BMP280;37210;50.058;8.688;2023-05-10T11:02:53;99771.63;;;19.01
51149;BMP280;37210;50.058;8.688;2023-05-10T11:05:39;99766.50;;;19.17
51149;BMP280;37210;50.058;8.688;2023-05-10T11:08:17;99764.72;;;19.17
51149;BMP280;37210;50.058;8.688;2023-05-10T11:10:52;99774.13;;;19.46
51149;BMP280;37210;50.058;8.688;2023-05-10T11:13:32;99746.72;;;19.26
51149;BMP280;37210;50.058;8.688;2023-05-10T11:16:10;99743.94;;;19.29
51149;BMP280;37210;50.058;8.688;2023-05-10T11:18:40;99753.97;;;19.42
51149;BMP280;37210;50.058;8.688;2023-05-10T11:21:09;99748.78;;;19.19
51149;BMP280;37210;50.058;8.688;2023-05-10T11:23:52;99765.25;;;19.26
51149;BMP280;37210;50.058;8.688;2023-05-10T11:26:23;99777.25;;;19.36
51149;BMP280;37210;50.058;8.688;2023-05-10T11:28:53;99768.44;;;19.13
51149;BMP280;37210;50.058;8.688;2023-05-10T11:31:25;99778.63;;;19.02
51149;BMP280;37210;50.058;8.688;2023-05-10T11:33:54;99773.28;;;19.04
51149;BMP280;37210;50.058;8.688;2023-05-10T11:36:24;99781.13;;;19.27
51149;BMP280;37210;50.058;8.688;2023-05-10T11:38:55;99773.47;;;19.20
51149;BMP280;37210;50.058;8.688;2023-05-10T11:41:24;99775.47;;;19.14
51149;BMP280;37210;50.058;8.688;2023-05-10T11:43:53;99777.38;;;19.11
51149;BMP280;37210;50.058;8.688;2023-05-10T11:46:23;99770.09;;;19.16
51149;BMP280;37210;50.058;8.688;2023-05-10T11:48:57;99774.16;;;19.04
51149;BMP280;37210;50.058;8.688;2023-05-10T11:51:27;99771.16;;;19.32
51149;BMP280;37210;50.058;8.688;2023-05-10T11:53:56;99775.44;;;19.36
51149;BMP280;37210;50.058;8.688;2023-05-10T11:56:24;99771.09;;;19.35
51149;BMP280;37210;50.058;8.688;2023-05-10T11:58:54;99775.94;;;19.46
51149;BMP280;37210;50.058;8.688;2023-05-10T12:01:23;99782.50;;;19.15
51149;BMP280;37210;50.058;8.688;2023-05-10T12:03:53;99773.41;;;19.43
51149;BMP280;37210;50.058;8.688;2023-05-10T12:06:26;99771.69;;;19.42
51149;BMP280;37210;50.058;8.688;2023-05-10T12:08:57;99780.03;;;19.73
51149;BMP280;37210;50.058;8.688;2023-05-10T12:11:26;99776.53;;;19.52
51149;BMP280;37210;50.058;8.688;2023-05-10T12:13:55;99770.78;;;19.81
51149;BMP280;37210;50.058;8.688;2023-05-10T12:16:24;99779.00;;;19.96
51149;BMP280;37210;50.058;8.688;2023-05-10T12:18:55;99783.59;;;20.11
51149;BMP280;37210;50.058;8.688;2023-05-10T12:21:26;99782.81;;;20.09
51149;BMP280;37210;50.058;8.688;2023-05-10T12:24:02;99739.59;;;20.05
51149;BMP280;37210;50.058;8.688;2023-05-10T12:26:31;99777.75;;;20.41
51149;BMP280;37210;50.058;8.688;2023-05-10T12:29:12;99775.47;;;20.34
51149;BMP280;37210;50.058;8.688;2023-05-10T12:31:52;99780.16;;;20.64
51149;BMP280;37210;50.058;8.688;2023-05-10T12:34:25;99742.44;;;20.39
51149;BMP280;37210;50.058;8.688;2023-05-10T12:36:54;99760.78;;;20.62
51149;BMP280;37210;50.058;8.688;2023-05-10T12:39:24;99745.06;;;20.58
51149;BMP280;37210;50.058;8.688;2023-05-10T12:41:58;99750.00;;;20.65
51149;BMP280;37210;50.058;8.688;2023-05-10T12:44:29;99776.47;;;20.86
51149;BMP280;37210;50.058;8.688;2023-05-10T12:46:56;99770.97;;;20.89
51149;BMP280;37210;50.058;8.688;2023-05-10T12:49:24;99774.19;;;21.14
51149;BMP280;37210;50.058;8.688;2023-05-10T12:51:51;99778.72;;;21.12
51149;BMP280;37210;50.058;8.688;2023-05-10T12:54:19;99746.56;;;21.16
51149;BMP280;37210;50.058;8.688;2023-05-10T12:56:49;99693.78;;;21.09
51149;BMP280;37210;50.058;8.688;2023-05-10T12:59:18;99772.41;;;21.31
51149;BMP280;37210;50.058;8.688;2023-05-10T13:01:45;99734.06;;;21.18
51149;BMP280;37210;50.058;8.688;2023-05-10T13:04:13;99783.59;;;21.38
51149;BMP280;37210;50.058;8.688;2023-05-10T13:06:40;99778.00;;;21.60
51149;BMP280;37210;50.058;8.688;2023-05-10T13:09:08;99757.72;;;21.57
51149;BMP280;37210;50.058;8.688;2023-05-10T13:11:37;99767.88;;;21.33
51149;BMP280;37210;50.058;8.688;2023-05-10T13:14:08;99784.28;;;21.41
51149;BMP280;37210;50.058;8.688;2023-05-10T13:16:35;99776.66;;;21.68
51149;BMP280;37210;50.058;8.688;2023-05-10T13:19:03;99776.91;;;21.46
51149;BMP280;37210;50.058;8.688;2023-05-10T13:21:30;99774.72;;;21.03
51149;BMP280;37210;50.058;8.688;2023-05-10T13:23:58;99745.75;;;20.97
51149;BMP280;37210;50.058;8.688;2023-05-10T13:26:26;99797.34;;;21.12
51149;BMP280;37210;50.058;8.688;2023-05-10T13:28:54;99751.34;;;21.10
51149;BMP280;37210;50.058;8.688;2023-05-10T13:31:22;99765.91;;;21.01
51149;BMP280;37210;50.058;8.688;2023-05-10T13:33:50;99773.41;;;21.29
51149;BMP280;37210;50.058;8.688;2023-05-10T13:36:18;99785.06;;;21.43
51149;BMP280;37210;50.058;8.688;2023-05-10T13:38:45;99796.72;;;21.58
51149;BMP280;37210;50.058;8.688;2023-05-10T13:41:13;99777.44;;;21.70
51149;BMP280;37210;50.058;8.688;2023-05-10T13:43:41;99788.28;;;21.67
51149;BMP280;37210;50.058;8.688;2023-05-10T13:46:09;99791.72;;;21.52
51149;BMP280;37210;50.058;8.688;2023-05-10T13:48:38;99762.28;;;21.55
51149;BMP280;37210;50.058;8.688;2023-05-10T13:51:06;99785.81;;;21.80
51149;BMP280;37210;50.058;8.688;2023-05-10T13:53:34;99762.13;;;21.41
51149;BMP280;37210;50.058;8.688;2023-05-10T13:56:02;99708.94;;;21.24
51149;BMP280;37210;50.058;8.688;2023-05-10T13:58:31;99719.03;;;21.34
51149;BMP280;37210;50.058;8.688;2023-05-10T14:00:59;99754.06;;;21.60
51149;BMP280;37210;50.058;8.688;2023-05-10T14:03:26;99746.91;;;21.27
51149;BMP280;37210;50.058;8.688;2023-05-10T14:05:55;99745.38;;;21.39
51149;BMP280;37210;50.058;8.688;2023-05-10T14:08:23;99746.13;;;21.25
51149;BMP280;37210;50.058;8.688;2023-05-10T14:10:53;99784.19;;;21.43
51149;BMP280;37210;50.058;8.688;2023-05-10T14:13:23;99789.84;;;21.54
51149;BMP280;37210;50.058;8.688;2023-05-10T14:15:52;99763.03;;;21.57
51149;BMP280;37210;50.058;8.688;2023-05-10T14:18:19;99784.66;;;21.51
51149;BMP280;37210;50.058;8.688;2023-05-10T14:20:47;99781.00;;;21.36
51149;BMP280;37210;50.058;8.688;2023-05-10T14:23:16;99760.97;;;21.29
51149;BMP280;37210;50.058;8.688;2023-05-10T14:25:45;99777.16;;;21.25
51149;BMP280;37210;50.058;8.688;2023-05-10T14:28:13;99777.00;;;21.45
51149;BMP280;37210;50.058;8.688;2023-05-10T14:30:41;99755.09;;;21.23
51149;BMP280;37210;50.058;8.688;2023-05-10T14:33:10;99778.16;;;21.05